Explorer - southeastern half: Past 24 Hour Conditions

 

West Sea Otter - 46204

02:00 PM PST 19 February 2019Buoy position: 51.23N 128.46W
Disclaimer

This table is a summary of hourly weather conditions for the past 24 hours.
Please note that these observations might not always be representative of weather conditions over their associated marine area.

Date / Time
(PST)
Wind(knots) Wave height(m) Wave period(s) Pressure(kPa) Air tempC) Water tempC)
19 February 2019
14:00 WNW 21 gust 25 2.5 7.0 101.3 7 7
13:00 W 14 gust 18 2.4 12.0 101.5 7 7
12:00 W 16 gust 25 2.2 7.0 101.5 6 7
11:00 W 16 gust 19 1.9 13.0 101.6 7 7
10:00 W 16 gust 19 1.9 12.0 101.7 7 7
9:00 W 16 gust 21 1.8 13.0 101.8 6 7
8:00 W 10 gust 14 1.7 10.0 101.9 6 8
7:00 W 14 gust 16 1.7 12.0 101.9 7 8
6:00 W 14 gust 16 1.7 12.0 102.0 6 7
5:00 W 14 gust 16 1.5 13.0 102.1 6 7
4:00 W 14 gust 16 1.5 14.0 102.2 6 7
3:00 W 16 gust 19 1.3 13.0 102.2 6 8
2:00 W 14 gust 18 1.3 10.0 102.3 7 7
1:00 SW 12 gust 16 1.2 12.0 102.3 7 7
0:00 WSW 12 gust 14 1.1 13.0 102.5 6 7
18 February 2019
23:00 S 10 gust 12 1.1 14.0 102.6 6 7
22:00 SSW 6 gust 8 1.2 12.0 102.7 6 7
21:00 SW 6 gust 8 1.1 13.0 102.8 6 7
20:00 WSW 4 gust 6 1.1 13.0 102.8 5 7
19:00 W 6 gust 8 1.1 13.0 102.9 5 7
18:00 WNW 8 gust 10 1.0 14.0 102.9 5 7
17:00 NW 8 gust 12 1.0 13.0 102.9 5 8
16:00 N 8 gust 10 1.0 14.0 103.0 5 7
15:00 N 8 gust 10 1.1 15.0 103.0 5 7
14:00 NNW 10 gust 12 1.1 14.0 103.0 4 7

Zoom-in to make a selection

Map of Pacific - South Coast marine weather areas South Nomad - 46036 Sentry Shoal - 46131 South Brooks - 46132 Halibut Bank - 46146 South Moresby - 46147 South Hecate Strait - 46185 West Sea Otter - 46204 La Perouse Bank - 46206 East Dellwood - 46207 Discovery Island Esquimalt Harbour Kelp Reefs Malahat Race Rocks Lightstation Saturna Island Sheringham Point University of Victoria Victoria Gonzales Victoria Int'l Airport Ballenas Islands Campbell River Airport Comox Airport Entrance Island Fanny Island Nanaimo Airport Port Hardy Airport Sisters Islets Estevan Point Port Alberni Sartine Island Solander Island Tofino Airport Grief Point Howe Sound - Pam Rocks Powell River Airport Sechelt Squamish Airport Cape St.James Bella Bella Airport Bella Coola Airport Cathedral Point Herbert Island Point Atkinson Sand Heads Lightstation Tsawwassen Ferry Terminal Vancouver Int'l Airport Vancouver Harbour West Vancouver
Legend:
buoy Buoy
land station Land Station

Pacific - South Coast Area

Another Region

What we are doing

Date modified: